sensor_id;sensor_type;location;lat;lon;timestamp;P1;durP1;ratioP1;P2;durP2;ratioP2
20283;SDS011;10301;50.832;4.080;2024-02-14T00:01:16;9.83;;;5.13;;
20283;SDS011;10301;50.832;4.080;2024-02-14T00:03:43;9.73;;;5.50;;
20283;SDS011;10301;50.832;4.080;2024-02-14T00:06:09;9.70;;;5.60;;
20283;SDS011;10301;50.832;4.080;2024-02-14T00:08:37;10.37;;;5.17;;
20283;SDS011;10301;50.832;4.080;2024-02-14T00:11:03;9.93;;;5.73;;
20283;SDS011;10301;50.832;4.080;2024-02-14T00:13:28;8.13;;;5.53;;
20283;SDS011;10301;50.832;4.080;2024-02-14T00:15:54;11.27;;;5.97;;
20283;SDS011;10301;50.832;4.080;2024-02-14T00:18:21;9.43;;;5.50;;
20283;SDS011;10301;50.832;4.080;2024-02-14T00:20:48;10.90;;;5.10;;
20283;SDS011;10301;50.832;4.080;2024-02-14T00:23:13;8.67;;;5.57;;
20283;SDS011;10301;50.832;4.080;2024-02-14T00:25:39;9.13;;;5.43;;
20283;SDS011;10301;50.832;4.080;2024-02-14T00:28:05;12.53;;;5.30;;
20283;SDS011;10301;50.832;4.080;2024-02-14T00:30:31;10.17;;;5.27;;
20283;SDS011;10301;50.832;4.080;2024-02-14T00:32:56;9.53;;;5.20;;
20283;SDS011;10301;50.832;4.080;2024-02-14T00:35:22;8.83;;;5.53;;
20283;SDS011;10301;50.832;4.080;2024-02-14T00:37:48;9.43;;;5.03;;
20283;SDS011;10301;50.832;4.080;2024-02-14T00:40:14;10.13;;;6.33;;
20283;SDS011;10301;50.832;4.080;2024-02-14T00:42:40;10.97;;;5.07;;
20283;SDS011;10301;50.832;4.080;2024-02-14T00:45:06;7.73;;;5.03;;
20283;SDS011;10301;50.832;4.080;2024-02-14T00:47:35;6.60;;;4.93;;
20283;SDS011;10301;50.832;4.080;2024-02-14T00:50:03;8.67;;;5.50;;
20283;SDS011;10301;50.832;4.080;2024-02-14T00:52:29;10.30;;;4.77;;
20283;SDS011;10301;50.832;4.080;2024-02-14T00:54:55;10.87;;;5.60;;
20283;SDS011;10301;50.832;4.080;2024-02-14T00:57:21;9.07;;;5.90;;
20283;SDS011;10301;50.832;4.080;2024-02-14T00:59:51;9.80;;;5.53;;
20283;SDS011;10301;50.832;4.080;2024-02-14T01:02:17;9.43;;;5.43;;
20283;SDS011;10301;50.832;4.080;2024-02-14T01:04:43;9.77;;;6.00;;
20283;SDS011;10301;50.832;4.080;2024-02-14T01:07:09;9.47;;;5.83;;
20283;SDS011;10301;50.832;4.080;2024-02-14T01:09:34;10.93;;;5.60;;
20283;SDS011;10301;50.832;4.080;2024-02-14T01:12:01;8.33;;;5.30;;
20283;SDS011;10301;50.832;4.080;2024-02-14T01:14:27;8.57;;;5.93;;
20283;SDS011;10301;50.832;4.080;2024-02-14T01:16:53;9.23;;;5.43;;
20283;SDS011;10301;50.832;4.080;2024-02-14T01:19:19;9.17;;;5.50;;
20283;SDS011;10301;50.832;4.080;2024-02-14T01:21:45;9.30;;;5.70;;
20283;SDS011;10301;50.832;4.080;2024-02-14T01:24:14;12.43;;;6.23;;
20283;SDS011;10301;50.832;4.080;2024-02-14T01:26:40;11.60;;;6.37;;
20283;SDS011;10301;50.832;4.080;2024-02-14T01:29:05;9.60;;;5.50;;
20283;SDS011;10301;50.832;4.080;2024-02-14T01:31:32;11.77;;;6.00;;
20283;SDS011;10301;50.832;4.080;2024-02-14T01:33:58;8.60;;;6.20;;
20283;SDS011;10301;50.832;4.080;2024-02-14T01:36:26;11.13;;;6.40;;
20283;SDS011;10301;50.832;4.080;2024-02-14T01:38:53;8.30;;;5.73;;
20283;SDS011;10301;50.832;4.080;2024-02-14T01:41:19;10.20;;;6.60;;
20283;SDS011;10301;50.832;4.080;2024-02-14T01:43:46;12.00;;;6.50;;
20283;SDS011;10301;50.832;4.080;2024-02-14T01:46:12;10.23;;;6.20;;
20283;SDS011;10301;50.832;4.080;2024-02-14T01:48:38;11.13;;;6.97;;
20283;SDS011;10301;50.832;4.080;2024-02-14T01:51:05;14.00;;;6.43;;
20283;SDS011;10301;50.832;4.080;2024-02-14T01:53:33;14.70;;;6.77;;
20283;SDS011;10301;50.832;4.080;2024-02-14T01:56:01;9.83;;;6.30;;
20283;SDS011;10301;50.832;4.080;2024-02-14T01:58:29;11.83;;;6.57;;
20283;SDS011;10301;50.832;4.080;2024-02-14T02:00:55;13.90;;;6.50;;
20283;SDS011;10301;50.832;4.080;2024-02-14T02:03:24;12.03;;;7.30;;
20283;SDS011;10301;50.832;4.080;2024-02-14T02:05:54;13.77;;;7.10;;
20283;SDS011;10301;50.832;4.080;2024-02-14T02:08:20;10.73;;;7.20;;
20283;SDS011;10301;50.832;4.080;2024-02-14T02:10:47;10.30;;;7.07;;
20283;SDS011;10301;50.832;4.080;2024-02-14T02:13:12;10.97;;;6.43;;
20283;SDS011;10301;50.832;4.080;2024-02-14T02:15:40;11.67;;;7.00;;
20283;SDS011;10301;50.832;4.080;2024-02-14T02:18:10;8.93;;;6.53;;
20283;SDS011;10301;50.832;4.080;2024-02-14T02:20:36;10.03;;;6.23;;
20283;SDS011;10301;50.832;4.080;2024-02-14T02:23:02;9.10;;;6.60;;
20283;SDS011;10301;50.832;4.080;2024-02-14T02:25:28;12.37;;;6.40;;
20283;SDS011;10301;50.832;4.080;2024-02-14T02:27:54;11.23;;;6.60;;
20283;SDS011;10301;50.832;4.080;2024-02-14T02:30:22;13.53;;;6.63;;
20283;SDS011;10301;50.832;4.080;2024-02-14T02:32:49;11.43;;;5.90;;
20283;SDS011;10301;50.832;4.080;2024-02-14T02:35:16;11.20;;;6.83;;
20283;SDS011;10301;50.832;4.080;2024-02-14T02:37:45;10.77;;;6.83;;
20283;SDS011;10301;50.832;4.080;2024-02-14T02:40:13;9.87;;;5.97;;
20283;SDS011;10301;50.832;4.080;2024-02-14T02:42:39;9.40;;;6.05;;
20283;SDS011;10301;50.832;4.080;2024-02-14T02:45:05;9.10;;;6.30;;
20283;SDS011;10301;50.832;4.080;2024-02-14T02:47:31;11.43;;;6.17;;
20283;SDS011;10301;50.832;4.080;2024-02-14T02:49:57;11.23;;;6.03;;
20283;SDS011;10301;50.832;4.080;2024-02-14T02:52:26;12.80;;;6.47;;
20283;SDS011;10301;50.832;4.080;2024-02-14T02:54:53;11.03;;;6.07;;
20283;SDS011;10301;50.832;4.080;2024-02-14T02:57:19;12.53;;;6.93;;
20283;SDS011;10301;50.832;4.080;2024-02-14T02:59:45;10.57;;;5.77;;
20283;SDS011;10301;50.832;4.080;2024-02-14T03:02:13;12.10;;;6.95;;
20283;SDS011;10301;50.832;4.080;2024-02-14T03:04:39;10.17;;;5.90;;
20283;SDS011;10301;50.832;4.080;2024-02-14T03:07:05;12.57;;;6.43;;
20283;SDS011;10301;50.832;4.080;2024-02-14T03:09:33;13.97;;;6.70;;
20283;SDS011;10301;50.832;4.080;2024-02-14T03:12:00;11.63;;;6.77;;
20283;SDS011;10301;50.832;4.080;2024-02-14T03:14:28;12.80;;;7.53;;
20283;SDS011;10301;50.832;4.080;2024-02-14T03:17:00;11.87;;;7.03;;
20283;SDS011;10301;50.832;4.080;2024-02-14T03:19:29;10.60;;;6.80;;
20283;SDS011;10301;50.832;4.080;2024-02-14T03:21:55;12.70;;;6.70;;
20283;SDS011;10301;50.832;4.080;2024-02-14T03:24:22;12.77;;;7.40;;
20283;SDS011;10301;50.832;4.080;2024-02-14T03:26:50;14.00;;;6.63;;
20283;SDS011;10301;50.832;4.080;2024-02-14T03:29:18;12.43;;;6.80;;
20283;SDS011;10301;50.832;4.080;2024-02-14T03:31:44;12.38;;;6.50;;
20283;SDS011;10301;50.832;4.080;2024-02-14T03:34:10;12.80;;;7.10;;
20283;SDS011;10301;50.832;4.080;2024-02-14T03:36:37;11.80;;;6.95;;
20283;SDS011;10301;50.832;4.080;2024-02-14T03:39:03;14.15;;;7.10;;
20283;SDS011;10301;50.832;4.080;2024-02-14T03:41:30;14.30;;;7.05;;
20283;SDS011;10301;50.832;4.080;2024-02-14T03:43:56;10.60;;;6.30;;
20283;SDS011;10301;50.832;4.080;2024-02-14T03:46:25;13.87;;;7.83;;
20283;SDS011;10301;50.832;4.080;2024-02-14T03:48:52;12.67;;;6.87;;
20283;SDS011;10301;50.832;4.080;2024-02-14T03:51:18;15.53;;;7.57;;
20283;SDS011;10301;50.832;4.080;2024-02-14T03:53:44;12.90;;;6.93;;
20283;SDS011;10301;50.832;4.080;2024-02-14T03:56:10;15.53;;;7.90;;
20283;SDS011;10301;50.832;4.080;2024-02-14T03:58:37;11.20;;;7.97;;
20283;SDS011;10301;50.832;4.080;2024-02-14T04:01:04;11.30;;;7.55;;
20283;SDS011;10301;50.832;4.080;2024-02-14T04:03:30;11.67;;;8.20;;
20283;SDS011;10301;50.832;4.080;2024-02-14T04:05:55;12.17;;;7.07;;
20283;SDS011;10301;50.832;4.080;2024-02-14T04:08:21;11.73;;;7.90;;
20283;SDS011;10301;50.832;4.080;2024-02-14T04:10:47;13.13;;;7.33;;
20283;SDS011;10301;50.832;4.080;2024-02-14T04:13:15;13.80;;;8.70;;
20283;SDS011;10301;50.832;4.080;2024-02-14T04:15:41;14.23;;;8.27;;
20283;SDS011;10301;50.832;4.080;2024-02-14T04:18:10;17.75;;;9.10;;
20283;SDS011;10301;50.832;4.080;2024-02-14T04:20:36;13.10;;;7.83;;
20283;SDS011;10301;50.832;4.080;2024-02-14T04:23:02;14.83;;;8.87;;
20283;SDS011;10301;50.832;4.080;2024-02-14T04:25:30;15.60;;;7.97;;
20283;SDS011;10301;50.832;4.080;2024-02-14T04:27:55;13.90;;;9.10;;
20283;SDS011;10301;50.832;4.080;2024-02-14T04:30:21;13.90;;;7.20;;
20283;SDS011;10301;50.832;4.080;2024-02-14T04:32:46;10.90;;;8.00;;
20283;SDS011;10301;50.832;4.080;2024-02-14T04:35:12;14.30;;;8.25;;
20283;SDS011;10301;50.832;4.080;2024-02-14T04:37:38;15.33;;;9.57;;
20283;SDS011;10301;50.832;4.080;2024-02-14T04:40:05;14.93;;;7.77;;
20283;SDS011;10301;50.832;4.080;2024-02-14T04:42:31;21.40;;;10.13;;
20283;SDS011;10301;50.832;4.080;2024-02-14T04:44:57;13.73;;;9.40;;
20283;SDS011;10301;50.832;4.080;2024-02-14T04:47:23;14.07;;;7.60;;
20283;SDS011;10301;50.832;4.080;2024-02-14T04:49:48;15.65;;;9.20;;
20283;SDS011;10301;50.832;4.080;2024-02-14T04:52:14;13.35;;;7.95;;
20283;SDS011;10301;50.832;4.080;2024-02-14T04:54:41;13.45;;;9.00;;
20283;SDS011;10301;50.832;4.080;2024-02-14T04:57:06;13.45;;;8.48;;
20283;SDS011;10301;50.832;4.080;2024-02-14T04:59:32;12.73;;;8.63;;
20283;SDS011;10301;50.832;4.080;2024-02-14T05:01:58;15.10;;;8.80;;
20283;SDS011;10301;50.832;4.080;2024-02-14T05:04:23;17.17;;;9.35;;
20283;SDS011;10301;50.832;4.080;2024-02-14T05:06:49;16.33;;;8.75;;
20283;SDS011;10301;50.832;4.080;2024-02-14T05:09:15;14.63;;;9.13;;
20283;SDS011;10301;50.832;4.080;2024-02-14T05:11:41;16.10;;;9.75;;
20283;SDS011;10301;50.832;4.080;2024-02-14T05:14:07;15.63;;;10.32;;
20283;SDS011;10301;50.832;4.080;2024-02-14T05:16:32;14.55;;;10.20;;
20283;SDS011;10301;50.832;4.080;2024-02-14T05:18:58;13.95;;;8.60;;
20283;SDS011;10301;50.832;4.080;2024-02-14T05:21:24;15.02;;;9.50;;
20283;SDS011;10301;50.832;4.080;2024-02-14T05:23:49;19.45;;;8.40;;
20283;SDS011;10301;50.832;4.080;2024-02-14T05:26:15;15.55;;;8.85;;
20283;SDS011;10301;50.832;4.080;2024-02-14T05:28:41;15.27;;;9.40;;
20283;SDS011;10301;50.832;4.080;2024-02-14T05:31:07;18.73;;;9.68;;
20283;SDS011;10301;50.832;4.080;2024-02-14T05:33:33;14.38;;;8.45;;
20283;SDS011;10301;50.832;4.080;2024-02-14T05:35:58;15.77;;;9.27;;
20283;SDS011;10301;50.832;4.080;2024-02-14T05:38:24;14.10;;;9.40;;
20283;SDS011;10301;50.832;4.080;2024-02-14T05:40:50;17.23;;;9.52;;
20283;SDS011;10301;50.832;4.080;2024-02-14T05:43:16;16.23;;;8.70;;
20283;SDS011;10301;50.832;4.080;2024-02-14T05:45:43;15.85;;;8.60;;
20283;SDS011;10301;50.832;4.080;2024-02-14T05:48:08;16.47;;;8.87;;
20283;SDS011;10301;50.832;4.080;2024-02-14T05:50:34;13.35;;;8.55;;
20283;SDS011;10301;50.832;4.080;2024-02-14T05:53:01;17.02;;;8.65;;
20283;SDS011;10301;50.832;4.080;2024-02-14T05:55:27;14.20;;;8.90;;
20283;SDS011;10301;50.832;4.080;2024-02-14T05:57:53;14.02;;;8.23;;
20283;SDS011;10301;50.832;4.080;2024-02-14T06:00:19;15.20;;;9.30;;
20283;SDS011;10301;50.832;4.080;2024-02-14T06:02:46;14.90;;;8.63;;
20283;SDS011;10301;50.832;4.080;2024-02-14T06:05:12;14.02;;;7.90;;
20283;SDS011;10301;50.832;4.080;2024-02-14T06:07:39;13.70;;;8.30;;
20283;SDS011;10301;50.832;4.080;2024-02-14T06:10:06;14.35;;;8.35;;
20283;SDS011;10301;50.832;4.080;2024-02-14T06:12:32;13.15;;;7.53;;
20283;SDS011;10301;50.832;4.080;2024-02-14T06:14:58;14.77;;;7.93;;
20283;SDS011;10301;50.832;4.080;2024-02-14T06:17:25;15.50;;;8.30;;
20283;SDS011;10301;50.832;4.080;2024-02-14T06:19:53;14.27;;;7.72;;
20283;SDS011;10301;50.832;4.080;2024-02-14T06:22:19;12.40;;;7.63;;
20283;SDS011;10301;50.832;4.080;2024-02-14T06:24:45;12.38;;;8.07;;
20283;SDS011;10301;50.832;4.080;2024-02-14T06:27:13;15.00;;;8.32;;
20283;SDS011;10301;50.832;4.080;2024-02-14T06:29:41;18.30;;;7.85;;
20283;SDS011;10301;50.832;4.080;2024-02-14T06:32:07;16.65;;;7.88;;
20283;SDS011;10301;50.832;4.080;2024-02-14T06:34:33;13.30;;;7.95;;
20283;SDS011;10301;50.832;4.080;2024-02-14T06:36:59;15.35;;;8.50;;
20283;SDS011;10301;50.832;4.080;2024-02-14T06:39:24;13.98;;;9.30;;
20283;SDS011;10301;50.832;4.080;2024-02-14T06:41:50;15.02;;;8.15;;
20283;SDS011;10301;50.832;4.080;2024-02-14T06:44:15;16.30;;;8.23;;
20283;SDS011;10301;50.832;4.080;2024-02-14T06:46:41;13.45;;;7.30;;
20283;SDS011;10301;50.832;4.080;2024-02-14T06:49:07;14.20;;;7.30;;
20283;SDS011;10301;50.832;4.080;2024-02-14T06:51:34;12.13;;;7.47;;
20283;SDS011;10301;50.832;4.080;2024-02-14T06:53:59;12.90;;;7.45;;
20283;SDS011;10301;50.832;4.080;2024-02-14T06:56:25;17.75;;;9.07;;
20283;SDS011;10301;50.832;4.080;2024-02-14T06:58:51;17.10;;;8.15;;
20283;SDS011;10301;50.832;4.080;2024-02-14T07:01:19;11.65;;;7.50;;
20283;SDS011;10301;50.832;4.080;2024-02-14T07:03:48;13.27;;;7.60;;
20283;SDS011;10301;50.832;4.080;2024-02-14T07:06:14;15.02;;;7.15;;
20283;SDS011;10301;50.832;4.080;2024-02-14T07:08:42;12.38;;;6.80;;
20283;SDS011;10301;50.832;4.080;2024-02-14T07:11:08;12.63;;;6.93;;
20283;SDS011;10301;50.832;4.080;2024-02-14T07:13:34;12.90;;;7.43;;
20283;SDS011;10301;50.832;4.080;2024-02-14T07:15:59;14.00;;;7.22;;
20283;SDS011;10301;50.832;4.080;2024-02-14T07:18:25;13.73;;;7.28;;
20283;SDS011;10301;50.832;4.080;2024-02-14T07:20:51;15.35;;;7.70;;
20283;SDS011;10301;50.832;4.080;2024-02-14T07:23:18;13.80;;;8.10;;
20283;SDS011;10301;50.832;4.080;2024-02-14T07:25:44;13.80;;;7.30;;
20283;SDS011;10301;50.832;4.080;2024-02-14T07:28:10;13.80;;;7.50;;
20283;SDS011;10301;50.832;4.080;2024-02-14T07:30:35;15.90;;;8.60;;
20283;SDS011;10301;50.832;4.080;2024-02-14T07:33:01;12.50;;;7.13;;
20283;SDS011;10301;50.832;4.080;2024-02-14T07:35:27;15.13;;;7.03;;
20283;SDS011;10301;50.832;4.080;2024-02-14T07:37:53;13.85;;;7.18;;
20283;SDS011;10301;50.832;4.080;2024-02-14T07:40:20;13.60;;;8.13;;
20283;SDS011;10301;50.832;4.080;2024-02-14T07:42:46;15.88;;;6.93;;
20283;SDS011;10301;50.832;4.080;2024-02-14T07:45:12;11.77;;;7.32;;
20283;SDS011;10301;50.832;4.080;2024-02-14T07:47:38;15.07;;;8.30;;
20283;SDS011;10301;50.832;4.080;2024-02-14T07:50:05;16.52;;;8.93;;
20283;SDS011;10301;50.832;4.080;2024-02-14T07:52:31;13.23;;;7.30;;
20283;SDS011;10301;50.832;4.080;2024-02-14T07:54:57;13.70;;;6.60;;
20283;SDS011;10301;50.832;4.080;2024-02-14T07:57:23;16.98;;;8.05;;
20283;SDS011;10301;50.832;4.080;2024-02-14T07:59:49;14.77;;;7.45;;
20283;SDS011;10301;50.832;4.080;2024-02-14T08:02:19;13.48;;;7.68;;
20283;SDS011;10301;50.832;4.080;2024-02-14T08:04:45;14.13;;;7.40;;
20283;SDS011;10301;50.832;4.080;2024-02-14T08:07:11;12.85;;;7.45;;
20283;SDS011;10301;50.832;4.080;2024-02-14T08:09:36;14.77;;;7.47;;
20283;SDS011;10301;50.832;4.080;2024-02-14T08:12:04;15.30;;;8.15;;
20283;SDS011;10301;50.832;4.080;2024-02-14T08:14:30;13.52;;;8.88;;
20283;SDS011;10301;50.832;4.080;2024-02-14T08:16:56;13.73;;;8.25;;
20283;SDS011;10301;50.832;4.080;2024-02-14T08:19:22;12.88;;;9.07;;
20283;SDS011;10301;50.832;4.080;2024-02-14T08:21:48;12.75;;;8.18;;
20283;SDS011;10301;50.832;4.080;2024-02-14T08:24:13;14.30;;;7.55;;
20283;SDS011;10301;50.832;4.080;2024-02-14T08:26:39;13.73;;;7.57;;
20283;SDS011;10301;50.832;4.080;2024-02-14T08:29:04;14.82;;;7.47;;
20283;SDS011;10301;50.832;4.080;2024-02-14T08:31:30;12.95;;;7.82;;
20283;SDS011;10301;50.832;4.080;2024-02-14T08:33:57;18.15;;;8.20;;
20283;SDS011;10301;50.832;4.080;2024-02-14T08:36:23;12.10;;;7.30;;
20283;SDS011;10301;50.832;4.080;2024-02-14T08:38:49;13.63;;;7.85;;
20283;SDS011;10301;50.832;4.080;2024-02-14T08:41:15;15.07;;;7.43;;
20283;SDS011;10301;50.832;4.080;2024-02-14T08:43:40;11.73;;;7.75;;
20283;SDS011;10301;50.832;4.080;2024-02-14T08:46:12;16.42;;;7.57;;
20283;SDS011;10301;50.832;4.080;2024-02-14T08:48:38;11.52;;;7.15;;
20283;SDS011;10301;50.832;4.080;2024-02-14T08:51:06;13.20;;;7.63;;
20283;SDS011;10301;50.832;4.080;2024-02-14T08:53:34;14.27;;;6.88;;
20283;SDS011;10301;50.832;4.080;2024-02-14T08:56:00;12.80;;;7.60;;
20283;SDS011;10301;50.832;4.080;2024-02-14T08:58:26;10.88;;;6.80;;
20283;SDS011;10301;50.832;4.080;2024-02-14T09:00:52;13.45;;;8.63;;
20283;SDS011;10301;50.832;4.080;2024-02-14T09:03:18;11.38;;;7.57;;
20283;SDS011;10301;50.832;4.080;2024-02-14T09:05:44;14.68;;;6.55;;
20283;SDS011;10301;50.832;4.080;2024-02-14T09:08:11;10.63;;;6.32;;
20283;SDS011;10301;50.832;4.080;2024-02-14T09:10:37;10.55;;;5.80;;
20283;SDS011;10301;50.832;4.080;2024-02-14T09:13:03;11.48;;;7.13;;
20283;SDS011;10301;50.832;4.080;2024-02-14T09:15:29;9.13;;;6.13;;
20283;SDS011;10301;50.832;4.080;2024-02-14T09:17:56;10.43;;;6.88;;
20283;SDS011;10301;50.832;4.080;2024-02-14T09:20:22;9.45;;;5.75;;
20283;SDS011;10301;50.832;4.080;2024-02-14T09:22:47;10.90;;;5.95;;
20283;SDS011;10301;50.832;4.080;2024-02-14T09:25:13;10.52;;;6.45;;
20283;SDS011;10301;50.832;4.080;2024-02-14T09:27:39;9.15;;;5.80;;
20283;SDS011;10301;50.832;4.080;2024-02-14T09:30:06;10.65;;;6.95;;
20283;SDS011;10301;50.832;4.080;2024-02-14T09:32:32;8.65;;;6.18;;
20283;SDS011;10301;50.832;4.080;2024-02-14T09:35:01;11.32;;;6.05;;
20283;SDS011;10301;50.832;4.080;2024-02-14T09:37:29;9.40;;;6.30;;
20283;SDS011;10301;50.832;4.080;2024-02-14T09:39:55;10.25;;;6.40;;
20283;SDS011;10301;50.832;4.080;2024-02-14T09:42:24;13.57;;;6.13;;
20283;SDS011;10301;50.832;4.080;2024-02-14T09:44:56;10.75;;;6.45;;
20283;SDS011;10301;50.832;4.080;2024-02-14T09:47:24;10.77;;;6.78;;
20283;SDS011;10301;50.832;4.080;2024-02-14T09:49:54;10.82;;;6.57;;
20283;SDS011;10301;50.832;4.080;2024-02-14T09:52:22;11.05;;;6.80;;
20283;SDS011;10301;50.832;4.080;2024-02-14T09:54:49;9.93;;;6.60;;
20283;SDS011;10301;50.832;4.080;2024-02-14T09:57:17;10.52;;;6.47;;
20283;SDS011;10301;50.832;4.080;2024-02-14T09:59:43;11.10;;;7.13;;
20283;SDS011;10301;50.832;4.080;2024-02-14T10:02:10;10.00;;;6.75;;
20283;SDS011;10301;50.832;4.080;2024-02-14T10:04:36;10.20;;;6.40;;
20283;SDS011;10301;50.832;4.080;2024-02-14T10:07:06;14.77;;;6.93;;
20283;SDS011;10301;50.832;4.080;2024-02-14T10:09:39;10.40;;;6.80;;
20283;SDS011;10301;50.832;4.080;2024-02-14T10:12:06;9.43;;;6.20;;
20283;SDS011;10301;50.832;4.080;2024-02-14T10:14:34;10.13;;;6.93;;
20283;SDS011;10301;50.832;4.080;2024-02-14T10:17:01;9.75;;;6.82;;
20283;SDS011;10301;50.832;4.080;2024-02-14T10:19:28;11.85;;;6.75;;
20283;SDS011;10301;50.832;4.080;2024-02-14T10:21:57;9.65;;;7.05;;
20283;SDS011;10301;50.832;4.080;2024-02-14T10:24:28;10.73;;;7.60;;
20283;SDS011;10301;50.832;4.080;2024-02-14T10:26:55;10.90;;;7.38;;
20283;SDS011;10301;50.832;4.080;2024-02-14T10:29:24;11.57;;;7.05;;
20283;SDS011;10301;50.832;4.080;2024-02-14T10:31:50;11.48;;;6.93;;
20283;SDS011;10301;50.832;4.080;2024-02-14T10:34:16;11.15;;;6.47;;
20283;SDS011;10301;50.832;4.080;2024-02-14T10:36:45;9.80;;;7.03;;
20283;SDS011;10301;50.832;4.080;2024-02-14T10:39:12;11.70;;;6.95;;
20283;SDS011;10301;50.832;4.080;2024-02-14T10:41:40;10.38;;;6.53;;
20283;SDS011;10301;50.832;4.080;2024-02-14T10:44:06;10.60;;;6.22;;
20283;SDS011;10301;50.832;4.080;2024-02-14T10:46:33;10.27;;;6.68;;
20283;SDS011;10301;50.832;4.080;2024-02-14T10:49:02;8.63;;;5.72;;
20283;SDS011;10301;50.832;4.080;2024-02-14T10:51:33;10.48;;;6.13;;
20283;SDS011;10301;50.832;4.080;2024-02-14T10:54:12;8.75;;;5.45;;
20283;SDS011;10301;50.832;4.080;2024-02-14T10:56:40;9.07;;;5.18;;
20283;SDS011;10301;50.832;4.080;2024-02-14T10:59:09;10.30;;;5.50;;
20283;SDS011;10301;50.832;4.080;2024-02-14T11:01:40;9.55;;;6.45;;
20283;SDS011;10301;50.832;4.080;2024-02-14T11:04:07;8.00;;;5.35;;
20283;SDS011;10301;50.832;4.080;2024-02-14T11:06:43;9.48;;;6.35;;
20283;SDS011;10301;50.832;4.080;2024-02-14T11:09:13;10.60;;;6.47;;
20283;SDS011;10301;50.832;4.080;2024-02-14T11:11:41;10.23;;;6.63;;
20283;SDS011;10301;50.832;4.080;2024-02-14T11:14:08;11.75;;;6.70;;
20283;SDS011;10301;50.832;4.080;2024-02-14T11:16:36;11.07;;;6.78;;
20283;SDS011;10301;50.832;4.080;2024-02-14T11:19:06;15.20;;;8.52;;
20283;SDS011;10301;50.832;4.080;2024-02-14T11:21:36;12.80;;;7.32;;
20283;SDS011;10301;50.832;4.080;2024-02-14T11:24:10;10.95;;;6.70;;
20283;SDS011;10301;50.832;4.080;2024-02-14T11:26:39;12.27;;;7.55;;
20283;SDS011;10301;50.832;4.080;2024-02-14T11:29:15;13.43;;;7.70;;
20283;SDS011;10301;50.832;4.080;2024-02-14T11:31:41;12.75;;;7.57;;
20283;SDS011;10301;50.832;4.080;2024-02-14T11:34:08;12.60;;;7.72;;
20283;SDS011;10301;50.832;4.080;2024-02-14T11:36:36;9.30;;;6.32;;
20283;SDS011;10301;50.832;4.080;2024-02-14T11:39:02;13.63;;;8.07;;
20283;SDS011;10301;50.832;4.080;2024-02-14T11:41:30;11.93;;;6.93;;
20283;SDS011;10301;50.832;4.080;2024-02-14T11:44:00;10.48;;;6.53;;
20283;SDS011;10301;50.832;4.080;2024-02-14T11:46:29;15.75;;;7.80;;
20283;SDS011;10301;50.832;4.080;2024-02-14T11:49:02;10.45;;;6.65;;
20283;SDS011;10301;50.832;4.080;2024-02-14T11:51:29;10.20;;;6.70;;
20283;SDS011;10301;50.832;4.080;2024-02-14T11:53:56;12.32;;;7.50;;
20283;SDS011;10301;50.832;4.080;2024-02-14T11:56:29;13.95;;;7.53;;
20283;SDS011;10301;50.832;4.080;2024-02-14T11:59:02;14.95;;;8.65;;
20283;SDS011;10301;50.832;4.080;2024-02-14T12:01:33;11.27;;;6.88;;
20283;SDS011;10301;50.832;4.080;2024-02-14T12:04:00;13.38;;;7.13;;
20283;SDS011;10301;50.832;4.080;2024-02-14T12:06:27;12.07;;;7.05;;
20283;SDS011;10301;50.832;4.080;2024-02-14T12:08:54;13.40;;;7.50;;
20283;SDS011;10301;50.832;4.080;2024-02-14T12:11:21;11.20;;;7.15;;
20283;SDS011;10301;50.832;4.080;2024-02-14T12:13:52;12.13;;;7.90;;
20283;SDS011;10301;50.832;4.080;2024-02-14T12:16:21;11.52;;;6.70;;
20283;SDS011;10301;50.832;4.080;2024-02-14T12:18:47;10.52;;;6.28;;
20283;SDS011;10301;50.832;4.080;2024-02-14T12:21:13;13.40;;;8.07;;
20283;SDS011;10301;50.832;4.080;2024-02-14T12:23:39;13.23;;;6.47;;
20283;SDS011;10301;50.832;4.080;2024-02-14T12:26:04;12.95;;;6.90;;
20283;SDS011;10301;50.832;4.080;2024-02-14T12:28:31;13.35;;;6.65;;
20283;SDS011;10301;50.832;4.080;2024-02-14T12:30:57;11.35;;;6.28;;
20283;SDS011;10301;50.832;4.080;2024-02-14T12:33:26;11.10;;;6.72;;
20283;SDS011;10301;50.832;4.080;2024-02-14T12:35:56;14.85;;;8.07;;
20283;SDS011;10301;50.832;4.080;2024-02-14T12:38:23;14.77;;;7.13;;
20283;SDS011;10301;50.832;4.080;2024-02-14T12:40:49;10.95;;;6.35;;
20283;SDS011;10301;50.832;4.080;2024-02-14T12:43:15;10.23;;;6.28;;
20283;SDS011;10301;50.832;4.080;2024-02-14T12:45:41;12.23;;;6.32;;
20283;SDS011;10301;50.832;4.080;2024-02-14T12:48:08;9.70;;;5.55;;
20283;SDS011;10301;50.832;4.080;2024-02-14T12:50:35;10.38;;;5.80;;
20283;SDS011;10301;50.832;4.080;2024-02-14T12:53:02;9.95;;;5.97;;
20283;SDS011;10301;50.832;4.080;2024-02-14T12:55:35;11.95;;;7.25;;
20283;SDS011;10301;50.832;4.080;2024-02-14T12:58:01;9.95;;;6.70;;
20283;SDS011;10301;50.832;4.080;2024-02-14T13:00:27;12.05;;;6.03;;
20283;SDS011;10301;50.832;4.080;2024-02-14T13:02:54;12.50;;;8.75;;
20283;SDS011;10301;50.832;4.080;2024-02-14T13:05:20;7.97;;;5.03;;
20283;SDS011;10301;50.832;4.080;2024-02-14T13:07:45;8.40;;;5.70;;
20283;SDS011;10301;50.832;4.080;2024-02-14T13:10:11;9.15;;;5.43;;
20283;SDS011;10301;50.832;4.080;2024-02-14T13:12:38;11.27;;;5.72;;
20283;SDS011;10301;50.832;4.080;2024-02-14T13:15:04;9.35;;;5.10;;
20283;SDS011;10301;50.832;4.080;2024-02-14T13:17:30;7.65;;;5.43;;
20283;SDS011;10301;50.832;4.080;2024-02-14T13:19:56;9.15;;;4.78;;
20283;SDS011;10301;50.832;4.080;2024-02-14T13:22:24;8.95;;;4.65;;
20283;SDS011;10301;50.832;4.080;2024-02-14T13:24:53;10.32;;;5.07;;
20283;SDS011;10301;50.832;4.080;2024-02-14T13:27:18;9.00;;;5.38;;
20283;SDS011;10301;50.832;4.080;2024-02-14T13:29:48;8.40;;;4.25;;
20283;SDS011;10301;50.832;4.080;2024-02-14T13:32:14;7.68;;;4.38;;
20283;SDS011;10301;50.832;4.080;2024-02-14T13:34:40;8.60;;;4.47;;
20283;SDS011;10301;50.832;4.080;2024-02-14T13:37:06;9.82;;;4.40;;
20283;SDS011;10301;50.832;4.080;2024-02-14T13:39:32;10.30;;;4.38;;
20283;SDS011;10301;50.832;4.080;2024-02-14T13:41:58;7.38;;;4.50;;
20283;SDS011;10301;50.832;4.080;2024-02-14T13:44:25;10.75;;;4.25;;
20283;SDS011;10301;50.832;4.080;2024-02-14T13:46:51;8.15;;;4.78;;
20283;SDS011;10301;50.832;4.080;2024-02-14T13:49:18;8.32;;;4.43;;
20283;SDS011;10301;50.832;4.080;2024-02-14T13:51:50;13.90;;;4.10;;
20283;SDS011;10301;50.832;4.080;2024-02-14T13:54:16;7.82;;;4.25;;
20283;SDS011;10301;50.832;4.080;2024-02-14T13:56:43;7.55;;;4.40;;
20283;SDS011;10301;50.832;4.080;2024-02-14T13:59:09;9.93;;;4.63;;
20283;SDS011;10301;50.832;4.080;2024-02-14T14:01:35;9.57;;;4.57;;
20283;SDS011;10301;50.832;4.080;2024-02-14T14:04:02;6.40;;;4.72;;
20283;SDS011;10301;50.832;4.080;2024-02-14T14:06:28;8.07;;;3.92;;
20283;SDS011;10301;50.832;4.080;2024-02-14T14:08:54;11.82;;;4.03;;
20283;SDS011;10301;50.832;4.080;2024-02-14T14:11:20;10.55;;;4.60;;
20283;SDS011;10301;50.832;4.080;2024-02-14T14:13:46;11.65;;;5.93;;
20283;SDS011;10301;50.832;4.080;2024-02-14T14:16:11;8.55;;;4.28;;
20283;SDS011;10301;50.832;4.080;2024-02-14T14:18:37;7.63;;;4.15;;
20283;SDS011;10301;50.832;4.080;2024-02-14T14:21:04;10.65;;;4.05;;
20283;SDS011;10301;50.832;4.080;2024-02-14T14:23:30;7.80;;;3.97;;
20283;SDS011;10301;50.832;4.080;2024-02-14T14:25:55;8.15;;;4.32;;
20283;SDS011;10301;50.832;4.080;2024-02-14T14:28:21;10.88;;;4.00;;
20283;SDS011;10301;50.832;4.080;2024-02-14T14:30:56;9.20;;;3.88;;
20283;SDS011;10301;50.832;4.080;2024-02-14T14:33:21;13.40;;;6.07;;
20283;SDS011;10301;50.832;4.080;2024-02-14T14:35:47;9.68;;;3.60;;